createdAt,value
2022-08-04T00:00:10.379Z,2.22
2022-08-04T00:02:59.670Z,1.90
2022-08-04T00:05:51.043Z,1.90
2022-08-04T00:08:43.630Z,2.33
2022-08-04T00:11:15.519Z,1.55
2022-08-04T00:13:58.174Z,1.88
2022-08-04T00:16:38.013Z,1.92
2022-08-04T00:19:11.983Z,1.83
2022-08-04T00:21:46.622Z,2.60
2022-08-04T00:24:16.017Z,2.35
2022-08-04T00:26:43.807Z,2.03
2022-08-04T00:29:10.755Z,2.33
2022-08-04T00:31:55.922Z,2.50
2022-08-04T00:34:29.603Z,2.63
2022-08-04T00:36:58.008Z,2.40
2022-08-04T00:39:26.376Z,2.45
2022-08-04T00:42:01.458Z,2.80
2022-08-04T00:44:31.239Z,2.42
2022-08-04T00:47:16.706Z,2.95
2022-08-04T00:50:18.648Z,2.47
2022-08-04T00:53:06.552Z,2.35
2022-08-04T00:56:23.749Z,2.22
2022-08-04T00:58:59.329Z,2.20
2022-08-04T01:01:51.662Z,2.30
2022-08-04T01:05:02.341Z,2.40
2022-08-04T01:07:43.337Z,2.10
2022-08-04T01:10:38.219Z,2.08
2022-08-04T01:13:07.862Z,2.67
2022-08-04T01:16:02.411Z,2.50
2022-08-04T01:18:44.662Z,2.60
2022-08-04T01:21:29.467Z,2.67
2022-08-04T01:24:14.518Z,2.50
2022-08-04T01:27:06.113Z,2.78
2022-08-04T01:29:49.214Z,3.03
2022-08-04T01:32:36.862Z,2.25
2022-08-04T01:35:47.912Z,2.88
2022-08-04T01:38:26.930Z,2.63
2022-08-04T01:40:57.530Z,2.35
2022-08-04T01:43:24.883Z,2.38
2022-08-04T01:46:00.007Z,2.85
2022-08-04T01:48:28.575Z,2.63
2022-08-04T01:51:03.153Z,2.75
2022-08-04T01:53:34.089Z,2.65
2022-08-04T01:56:06.106Z,2.38
2022-08-04T01:58:35.106Z,2.60
2022-08-04T02:01:03.343Z,2.50
2022-08-04T02:04:19.594Z,2.05
2022-08-04T02:06:49.725Z,2.13
2022-08-04T02:09:31.482Z,2.85
2022-08-04T02:12:17.433Z,2.40
2022-08-04T02:15:00.234Z,2.58
2022-08-04T02:17:41.338Z,2.95
2022-08-04T02:20:15.327Z,2.38
2022-08-04T02:22:58.882Z,2.65
2022-08-04T02:25:28.270Z,2.55
2022-08-04T02:28:00.423Z,2.40
2022-08-04T02:30:39.967Z,2.35
2022-08-04T02:33:07.804Z,2.60
2022-08-04T02:35:38.638Z,2.35
2022-08-04T02:38:39.242Z,2.50
2022-08-04T02:41:07.796Z,2.60
2022-08-04T02:43:51.703Z,2.90
2022-08-04T02:46:21.143Z,2.65
2022-08-04T02:48:49.998Z,2.70
2022-08-04T02:51:20.289Z,2.42
2022-08-04T02:53:50.489Z,2.67
2022-08-04T02:56:20.312Z,2.65
2022-08-04T02:58:51.649Z,2.88
2022-08-04T03:01:18.618Z,2.72
2022-08-04T03:04:24.556Z,2.67
2022-08-04T03:07:29.079Z,2.72
2022-08-04T03:10:21.448Z,2.70
2022-08-04T03:13:02.361Z,2.55
2022-08-04T03:15:32.058Z,2.72
2022-08-04T03:18:23.794Z,2.88
2022-08-04T03:21:22.511Z,2.80
2022-08-04T03:24:10.677Z,2.90
2022-08-04T03:26:49.293Z,2.63
2022-08-04T03:29:49.547Z,2.50
2022-08-04T03:32:46.888Z,2.72
2022-08-04T03:35:28.760Z,3.40
2022-08-04T03:38:24.053Z,2.90
2022-08-04T03:40:59.782Z,3.15
2022-08-04T03:43:59.978Z,3.10
2022-08-04T03:46:48.565Z,2.38
2022-08-04T03:49:30.285Z,3.17
2022-08-04T03:52:50.639Z,3.30
2022-08-04T03:55:35.873Z,2.80
2022-08-04T03:58:30.546Z,2.63
2022-08-04T04:01:17.717Z,2.60
2022-08-04T04:04:21.914Z,2.90
2022-08-04T04:07:17.541Z,2.83
2022-08-04T04:09:57.498Z,2.50
2022-08-04T04:12:46.240Z,3.03
2022-08-04T04:15:39.391Z,3.30
2022-08-04T04:18:31.260Z,2.80
2022-08-04T04:21:19.498Z,4.15
2022-08-04T04:24:24.414Z,3.50
2022-08-04T04:27:12.700Z,2.95
2022-08-04T04:30:12.811Z,3.20
2022-08-04T04:32:45.371Z,2.90
2022-08-04T04:35:15.096Z,2.70
2022-08-04T04:38:02.018Z,2.75
2022-08-04T04:41:16.007Z,2.70
2022-08-04T04:44:00.982Z,5.13
2022-08-04T04:46:41.308Z,3.10
2022-08-04T04:49:14.231Z,3.40
2022-08-04T04:52:00.473Z,3.25
2022-08-04T04:54:56.239Z,2.88
2022-08-04T04:57:53.313Z,3.17
2022-08-04T05:00:13.736Z,2.75
2022-08-04T05:02:49.513Z,2.90
2022-08-04T05:05:33.671Z,2.85
2022-08-04T05:08:43.561Z,3.08
2022-08-04T05:11:13.671Z,2.88
2022-08-04T05:14:36.277Z,2.58
2022-08-04T05:16:46.440Z,2.08
2022-08-04T05:19:38.842Z,2.55
2022-08-04T05:22:30.718Z,2.50
2022-08-04T05:25:08.655Z,2.30
2022-08-04T05:27:40.527Z,2.30
2022-08-04T05:30:09.005Z,2.50
2022-08-04T05:32:48.302Z,2.42
2022-08-04T05:35:56.307Z,2.70
2022-08-04T05:38:18.675Z,2.55
2022-08-04T05:40:46.751Z,2.95
2022-08-04T05:43:15.896Z,2.40
2022-08-04T05:45:44.831Z,2.72
2022-08-04T05:48:11.968Z,2.45
2022-08-04T05:50:39.184Z,2.88
2022-08-04T05:53:07.098Z,2.78
2022-08-04T05:55:57.240Z,2.67
2022-08-04T05:58:22.189Z,2.60
2022-08-04T06:00:52.418Z,2.40
2022-08-04T06:03:22.319Z,2.25
2022-08-04T06:05:50.350Z,2.00
2022-08-04T06:08:17.487Z,2.45
2022-08-04T06:10:46.539Z,2.25
2022-08-04T06:13:46.688Z,2.53
2022-08-04T06:16:05.731Z,2.10
2022-08-04T06:20:00.896Z,2.45
2022-08-04T06:21:23.567Z,2.38
2022-08-04T06:23:53.634Z,2.17
2022-08-04T06:26:30.074Z,2.30
2022-08-04T06:28:57.677Z,2.30
2022-08-04T06:32:31.690Z,2.40
2022-08-04T06:34:35.313Z,2.95
2022-08-04T06:37:03.118Z,2.25
2022-08-04T06:39:32.118Z,2.20
2022-08-04T06:42:17.450Z,2.10
2022-08-04T06:44:50.132Z,2.03
2022-08-04T06:47:21.338Z,2.35
2022-08-04T06:51:27.794Z,2.20
2022-08-04T06:52:39.183Z,1.88
2022-08-04T06:55:07.974Z,2.17
2022-08-04T06:57:37.182Z,2.20
2022-08-04T07:00:03.906Z,2.33
2022-08-04T07:02:38.961Z,2.05
2022-08-04T07:05:08.036Z,2.15
2022-08-04T07:07:37.162Z,1.92
2022-08-04T07:10:24.869Z,2.40
2022-08-04T07:12:53.852Z,2.17
2022-08-04T07:15:21.867Z,2.28
2022-08-04T07:17:52.150Z,2.10
2022-08-04T07:20:35.021Z,1.90
2022-08-04T07:23:04.651Z,2.20
2022-08-04T07:26:00.278Z,2.08
2022-08-04T07:28:21.193Z,2.30
2022-08-04T07:30:49.580Z,2.00
2022-08-04T07:33:18.201Z,1.75
2022-08-04T07:36:09.368Z,1.85
2022-08-04T07:38:37.571Z,1.95
2022-08-04T07:43:54.904Z,2.05
2022-08-04T07:46:21.848Z,2.17
2022-08-04T07:48:48.774Z,2.30
2022-08-04T07:51:16.984Z,2.05
2022-08-04T07:53:55.496Z,2.08
2022-08-04T07:56:23.199Z,1.95
2022-08-04T07:58:50.491Z,1.95
2022-08-04T08:01:19.168Z,1.70
2022-08-04T08:03:46.669Z,1.98
2022-08-04T08:06:30.780Z,1.88
2022-08-04T08:09:13.276Z,1.80
2022-08-04T08:12:36.854Z,1.83
2022-08-04T08:14:30.847Z,2.13
2022-08-04T08:17:02.528Z,2.33
2022-08-04T08:19:31.366Z,2.22
2022-08-04T08:22:00.545Z,2.17
2022-08-04T08:24:35.450Z,1.80
2022-08-04T08:27:06.854Z,1.75
2022-08-04T08:29:35.136Z,1.60
2022-08-04T08:32:08.316Z,1.73
2022-08-04T08:34:37.769Z,1.80
2022-08-04T08:37:24.420Z,1.83
2022-08-04T08:40:04.514Z,2.10
2022-08-04T08:42:40.400Z,1.90
2022-08-04T08:45:38.136Z,2.63
2022-08-04T08:48:26.543Z,1.90
2022-08-04T08:51:11.469Z,2.90
2022-08-04T08:53:41.283Z,2.00
2022-08-04T08:56:30.946Z,2.30
2022-08-04T08:59:37.357Z,2.00
2022-08-04T09:02:45.217Z,1.98
2022-08-04T09:05:41.790Z,2.67
2022-08-04T09:08:11.334Z,2.40
2022-08-04T09:10:58.903Z,2.47
2022-08-04T09:13:45.761Z,2.20
2022-08-04T09:16:15.539Z,1.90
2022-08-04T09:19:02.598Z,1.92
2022-08-04T09:21:39.567Z,2.00
2022-08-04T09:24:37.194Z,1.92
2022-08-04T09:27:13.915Z,1.73
2022-08-04T09:29:48.512Z,1.95
2022-08-04T09:32:44.785Z,2.30
2022-08-04T09:35:33.647Z,2.22
2022-08-04T09:38:26.403Z,2.10
2022-08-04T09:41:26.893Z,2.08
2022-08-04T09:44:49.241Z,1.98
2022-08-04T09:47:39.379Z,2.05
2022-08-04T09:50:39.067Z,2.22
2022-08-04T09:53:38.523Z,2.83
2022-08-04T09:56:28.575Z,2.35
2022-08-04T09:59:26.968Z,2.05
2022-08-04T10:01:59.757Z,2.00
2022-08-04T10:04:31.385Z,2.10
2022-08-04T10:07:02.523Z,1.98
2022-08-04T10:10:14.344Z,1.90
2022-08-04T10:12:55.640Z,2.00
2022-08-04T10:15:36.381Z,2.20
2022-08-04T10:18:22.743Z,1.98
2022-08-04T10:21:13.622Z,2.17
2022-08-04T10:24:07.644Z,1.98
2022-08-04T10:27:00.217Z,2.10
2022-08-04T10:29:38.979Z,1.92
2022-08-04T10:32:39.986Z,1.80
2022-08-04T10:35:22.515Z,2.33
2022-08-04T10:38:04.680Z,1.77
2022-08-04T10:40:45.633Z,2.10
2022-08-04T10:44:03.860Z,1.85
2022-08-04T10:46:46.417Z,1.90
2022-08-04T10:49:23.898Z,2.25
2022-08-04T10:52:05.463Z,2.25
2022-08-04T10:54:50.192Z,1.88
2022-08-04T10:57:33.575Z,1.67
2022-08-04T11:00:04.911Z,1.70
2022-08-04T11:02:45.462Z,2.13
2022-08-04T11:05:21.921Z,1.67
2022-08-04T11:07:54.006Z,1.40
2022-08-04T11:10:25.698Z,1.50
2022-08-04T11:13:00.210Z,1.50
2022-08-04T11:15:52.982Z,1.38
2022-08-04T11:18:37.702Z,1.38
2022-08-04T11:21:16.765Z,1.40
2022-08-04T11:23:55.167Z,1.35
2022-08-04T11:26:30.674Z,1.38
2022-08-04T11:29:20.400Z,1.35
2022-08-04T11:31:52.009Z,1.60
2022-08-04T11:34:26.926Z,1.50
2022-08-04T11:37:03.002Z,1.15
2022-08-04T11:39:35.807Z,1.40
2022-08-04T11:42:08.046Z,1.40
2022-08-04T11:44:42.351Z,1.25
2022-08-04T11:47:22.255Z,1.50
2022-08-04T11:49:58.076Z,1.50
2022-08-04T11:52:28.216Z,1.23
2022-08-04T11:54:57.187Z,1.23
2022-08-04T11:57:25.727Z,1.35
2022-08-04T12:00:07.141Z,1.52
2022-08-04T12:02:55.998Z,1.67
2022-08-04T12:05:36.858Z,1.25
2022-08-04T12:08:25.799Z,1.58
2022-08-04T12:11:11.024Z,1.30
2022-08-04T12:14:01.947Z,1.40
2022-08-04T12:16:40.711Z,1.42
2022-08-04T12:19:21.629Z,1.67
2022-08-04T12:21:55.927Z,1.60
2022-08-04T12:24:34.463Z,1.23
2022-08-04T12:27:18.359Z,1.40
2022-08-04T12:30:57.204Z,1.42
2022-08-04T12:32:53.580Z,1.40
2022-08-04T12:35:25.479Z,1.40
2022-08-04T12:37:52.545Z,1.83
2022-08-04T12:40:29.931Z,1.60
2022-08-04T12:43:09.104Z,1.45
2022-08-04T12:45:36.667Z,1.60
2022-08-04T12:48:06.380Z,1.50
2022-08-04T12:50:34.452Z,1.60
2022-08-04T12:53:03.489Z,1.40
2022-08-04T12:55:34.145Z,1.50
2022-08-04T12:58:04.416Z,1.75
2022-08-04T13:00:41.599Z,1.63
2022-08-04T13:03:12.282Z,1.40
2022-08-04T13:05:43.188Z,1.70
2022-08-04T13:08:11.867Z,1.40
2022-08-04T13:10:47.506Z,1.33
2022-08-04T13:13:19.944Z,0.98
2022-08-04T13:16:01.693Z,1.30
2022-08-04T13:18:32.836Z,1.35
2022-08-04T13:21:20.452Z,1.10
2022-08-04T13:24:10.936Z,1.70
2022-08-04T13:26:58.277Z,1.45
2022-08-04T13:29:58.836Z,1.38
2022-08-04T13:32:28.766Z,1.17
2022-08-04T13:34:59.925Z,1.20
2022-08-04T13:37:33.519Z,1.33
2022-08-04T13:40:03.263Z,1.35
2022-08-04T13:42:31.546Z,1.48
2022-08-04T13:45:00.996Z,1.23
2022-08-04T13:47:31.864Z,1.50
2022-08-04T13:50:13.957Z,1.35
2022-08-04T13:52:42.165Z,1.30
2022-08-04T13:55:38.342Z,1.48
2022-08-04T13:58:19.635Z,1.48
2022-08-04T14:01:10.934Z,1.10
2022-08-04T14:03:53.312Z,1.30
2022-08-04T14:06:25.485Z,1.45
2022-08-04T14:08:57.861Z,1.55
2022-08-04T14:12:08.808Z,1.60
2022-08-04T14:14:31.195Z,1.48
2022-08-04T14:17:20.280Z,1.50
2022-08-04T14:19:47.905Z,1.42
2022-08-04T14:22:26.888Z,1.50
2022-08-04T14:25:15.678Z,1.30
2022-08-04T14:27:57.330Z,1.13
2022-08-04T14:30:29.791Z,1.33
2022-08-04T14:34:01.281Z,1.15
2022-08-04T14:35:59.044Z,1.23
2022-08-04T14:38:44.040Z,1.25
2022-08-04T14:41:11.662Z,1.55
2022-08-04T14:43:59.135Z,1.38
2022-08-04T14:46:35.109Z,1.42
2022-08-04T14:49:11.998Z,1.48
2022-08-04T14:51:59.552Z,1.20
2022-08-04T14:54:35.460Z,1.40
2022-08-04T14:57:05.537Z,1.08
2022-08-04T15:00:01.487Z,1.25
2022-08-04T15:02:29.891Z,1.30
2022-08-04T15:04:57.498Z,1.35
2022-08-04T15:07:24.790Z,1.45
2022-08-04T15:09:51.806Z,1.30
2022-08-04T15:12:18.882Z,1.60
2022-08-04T15:14:45.707Z,1.52
2022-08-04T15:17:30.001Z,1.30
2022-08-04T15:19:58.438Z,1.23
2022-08-04T15:22:25.441Z,1.40
2022-08-04T15:24:55.334Z,1.17
2022-08-04T15:27:27.337Z,1.45
2022-08-04T15:29:59.601Z,1.48
2022-08-04T15:32:34.816Z,1.67
2022-08-04T15:35:04.835Z,1.63
2022-08-04T15:37:56.798Z,1.63
2022-08-04T15:40:44.135Z,1.20
2022-08-04T15:43:55.294Z,1.38
2022-08-04T15:46:46.760Z,1.60
2022-08-04T15:49:21.345Z,1.52
2022-08-04T15:51:59.622Z,1.50
2022-08-04T15:54:32.768Z,1.50
2022-08-04T15:57:02.166Z,1.55
2022-08-04T16:00:00.385Z,1.95
2022-08-04T16:02:33.297Z,1.40
2022-08-04T16:05:20.515Z,1.38
2022-08-04T16:08:13.262Z,1.65
2022-08-04T16:10:45.344Z,1.40
2022-08-04T16:13:17.215Z,1.50
2022-08-04T16:15:51.635Z,1.48
2022-08-04T16:18:30.832Z,1.75
2022-08-04T16:21:02.498Z,1.60
2022-08-04T16:23:58.037Z,1.50
2022-08-04T16:26:38.258Z,1.70
2022-08-04T16:29:36.666Z,1.50
2022-08-04T16:32:12.491Z,1.52
2022-08-04T16:35:05.210Z,1.80
2022-08-04T16:37:36.142Z,1.67
2022-08-04T16:40:41.114Z,1.58
2022-08-04T16:43:20.785Z,1.60
2022-08-04T16:45:54.497Z,2.30
2022-08-04T16:48:29.450Z,1.67
2022-08-04T16:51:07.279Z,1.48
2022-08-04T16:54:03.769Z,1.88
2022-08-04T16:56:33.914Z,2.50
2022-08-04T16:59:09.803Z,2.20
2022-08-04T17:01:38.486Z,1.95
2022-08-04T17:04:06.506Z,1.92
2022-08-04T17:06:38.792Z,2.20
2022-08-04T17:09:10.079Z,2.00
2022-08-04T17:11:37.040Z,1.92
2022-08-04T17:14:05.681Z,1.90
2022-08-04T17:16:43.253Z,1.83
2022-08-04T17:19:25.234Z,1.70
2022-08-04T17:22:04.804Z,2.35
2022-08-04T17:24:35.211Z,2.78
2022-08-04T17:27:04.297Z,2.55
2022-08-04T17:29:49.336Z,2.30
2022-08-04T17:32:19.809Z,2.85
2022-08-04T17:35:05.117Z,2.70
2022-08-04T17:37:52.121Z,2.47
2022-08-04T17:40:25.741Z,2.15
2022-08-04T17:44:01.156Z,1.65
2022-08-04T17:46:28.169Z,1.77
2022-08-04T17:49:02.894Z,1.85
2022-08-04T17:52:05.208Z,1.70
2022-08-04T17:54:39.531Z,1.90
2022-08-04T17:57:27.419Z,2.30
2022-08-04T18:00:00.003Z,1.95
2022-08-04T18:02:36.097Z,1.90
2022-08-04T18:05:07.355Z,1.90
2022-08-04T18:08:46.277Z,1.92
2022-08-04T18:10:51.692Z,2.17
2022-08-04T18:13:27.213Z,2.08
2022-08-04T18:16:04.930Z,1.90
2022-08-04T18:18:32.296Z,2.00
2022-08-04T18:21:02.871Z,1.95
2022-08-04T18:23:31.847Z,1.67
2022-08-04T18:26:02.023Z,1.55
2022-08-04T18:28:30.730Z,2.10
2022-08-04T18:31:00.225Z,1.92
2022-08-04T18:33:37.804Z,1.85
2022-08-04T18:36:32.707Z,1.98
2022-08-04T18:38:59.496Z,2.20
2022-08-04T18:42:02.561Z,2.60
2022-08-04T18:44:36.369Z,2.10
2022-08-04T18:47:23.166Z,2.45
2022-08-04T18:51:00.231Z,2.53
2022-08-04T18:52:45.307Z,1.98
2022-08-04T18:55:55.615Z,2.17
2022-08-04T18:58:07.203Z,2.40
2022-08-04T19:00:35.378Z,2.60
2022-08-04T19:03:02.333Z,2.30
2022-08-04T19:05:37.746Z,2.38
2022-08-04T19:08:33.783Z,2.03
2022-08-04T19:10:59.420Z,2.30
2022-08-04T19:13:27.975Z,2.53
2022-08-04T19:15:54.883Z,2.70
2022-08-04T19:18:26.046Z,3.00
2022-08-04T19:20:55.120Z,2.60
2022-08-04T19:24:28.244Z,2.65
2022-08-04T19:26:17.947Z,2.50
2022-08-04T19:28:55.132Z,2.45
2022-08-04T19:31:34.035Z,2.42
2022-08-04T19:34:07.461Z,2.33
2022-08-04T19:36:34.955Z,2.47
2022-08-04T19:39:11.631Z,2.50
2022-08-04T19:42:05.735Z,2.75
2022-08-04T19:44:29.914Z,2.58
2022-08-04T19:47:00.797Z,2.60
2022-08-04T19:50:05.055Z,2.50
2022-08-04T19:52:34.016Z,2.40
2022-08-04T19:55:09.889Z,2.17
2022-08-04T19:57:46.315Z,2.58
2022-08-04T20:00:32.841Z,2.33
2022-08-04T20:03:02.014Z,2.88
2022-08-04T20:05:54.351Z,3.53
2022-08-04T20:08:17.680Z,2.83
2022-08-04T20:10:51.537Z,2.67
2022-08-04T20:13:20.886Z,2.65
2022-08-04T20:15:58.056Z,2.85
2022-08-04T20:18:36.782Z,2.97
2022-08-04T20:21:19.445Z,2.90
2022-08-04T20:23:52.500Z,3.47
2022-08-04T20:26:20.184Z,3.28
2022-08-04T20:28:51.807Z,3.90
2022-08-04T20:31:19.864Z,3.15
2022-08-04T20:33:49.290Z,2.90
2022-08-04T20:36:22.622Z,2.95
2022-08-04T20:38:53.166Z,3.13
2022-08-04T20:41:21.595Z,2.72
2022-08-04T20:43:49.994Z,2.80
2022-08-04T20:46:29.771Z,3.28
2022-08-04T20:48:58.402Z,3.20
2022-08-04T20:51:31.873Z,3.17
2022-08-04T20:54:01.893Z,3.50
2022-08-04T20:56:30.757Z,3.65
2022-08-04T20:58:59.981Z,3.95
2022-08-04T21:01:30.303Z,3.67
2022-08-04T21:04:27.427Z,4.10
2022-08-04T21:06:57.277Z,3.78
2022-08-04T21:09:37.262Z,3.40
2022-08-04T21:12:10.218Z,3.58
2022-08-04T21:14:37.144Z,3.63
2022-08-04T21:17:07.116Z,3.70
2022-08-04T21:19:36.783Z,3.30
2022-08-04T21:22:10.581Z,3.70
2022-08-04T21:24:38.137Z,3.67
2022-08-04T21:27:07.097Z,3.90
2022-08-04T21:29:37.060Z,3.72
2022-08-04T21:32:07.677Z,3.40
2022-08-04T21:34:39.310Z,3.92
2022-08-04T21:37:09.299Z,3.72
2022-08-04T21:39:43.914Z,3.53
2022-08-04T21:42:42.705Z,3.90
2022-08-04T21:45:11.142Z,3.80
2022-08-04T21:47:46.550Z,3.97
2022-08-04T21:50:20.045Z,4.43
2022-08-04T21:52:48.345Z,3.38
2022-08-04T21:55:15.954Z,3.92
2022-08-04T21:57:42.821Z,4.07
2022-08-04T22:00:10.904Z,3.92
2022-08-04T22:02:45.459Z,5.00
2022-08-04T22:05:15.911Z,4.68
2022-08-04T22:07:49.794Z,4.18
2022-08-04T22:10:32.071Z,4.25
2022-08-04T22:13:07.036Z,4.32
2022-08-04T22:16:04.691Z,3.47
2022-08-04T22:18:24.399Z,3.88
2022-08-04T22:20:54.904Z,4.15
2022-08-04T22:23:24.273Z,4.07
2022-08-04T22:25:53.719Z,4.40
2022-08-04T22:28:27.911Z,4.30
2022-08-04T22:30:56.353Z,4.10
2022-08-04T22:33:23.463Z,4.00
2022-08-04T22:36:11.938Z,4.05
2022-08-04T22:38:51.096Z,4.85
2022-08-04T22:41:21.247Z,4.68
2022-08-04T22:43:54.791Z,4.13
2022-08-04T22:46:27.257Z,4.43
2022-08-04T22:48:54.926Z,5.30
2022-08-04T22:51:22.763Z,4.75
2022-08-04T22:53:51.018Z,3.72
2022-08-04T22:56:37.254Z,4.45
2022-08-04T22:59:10.055Z,4.90
2022-08-04T23:01:59.180Z,4.90
2022-08-04T23:04:25.905Z,4.60
2022-08-04T23:06:54.766Z,4.25
2022-08-04T23:09:22.249Z,4.68
2022-08-04T23:12:24.330Z,4.50
2022-08-04T23:14:52.429Z,4.70
2022-08-04T23:17:19.162Z,4.90
2022-08-04T23:19:57.919Z,4.20
2022-08-04T23:22:37.077Z,4.50
2022-08-04T23:25:15.425Z,4.50
2022-08-04T23:27:43.717Z,4.72
2022-08-04T23:30:11.404Z,4.75
2022-08-04T23:32:38.332Z,4.20
2022-08-04T23:35:05.842Z,4.00
2022-08-04T23:37:36.618Z,4.70
2022-08-04T23:40:32.696Z,4.60
2022-08-04T23:43:01.956Z,4.78
2022-08-04T23:46:03.999Z,4.30
2022-08-04T23:48:19.052Z,4.80
2022-08-04T23:50:48.014Z,5.28
2022-08-04T23:53:18.423Z,4.78
2022-08-04T23:55:49.183Z,4.20
2022-08-04T23:58:18.949Z,4.85
